createdAt,value
2019-01-20T00:00:55.410Z,101161.00
2019-01-20T00:03:24.903Z,101167.00
2019-01-20T00:05:54.395Z,101161.00
2019-01-20T00:08:23.929Z,101163.00
2019-01-20T00:10:53.369Z,101164.00
2019-01-20T00:13:22.842Z,101162.00
2019-01-20T00:15:52.355Z,101159.00
2019-01-20T00:18:21.803Z,101161.00
2019-01-20T00:20:51.272Z,101157.00
2019-01-20T00:23:20.708Z,101161.00
2019-01-20T00:25:50.171Z,101156.00
2019-01-20T00:28:19.660Z,101151.00
2019-01-20T00:30:49.094Z,101149.00
2019-01-20T00:33:18.530Z,101151.00
2019-01-20T00:35:48.019Z,101155.00
2019-01-20T00:38:17.540Z,101153.00
2019-01-20T00:40:47.078Z,101151.00
2019-01-20T00:43:17.515Z,101151.00
2019-01-20T00:45:47.039Z,101156.00
2019-01-20T00:48:16.481Z,101158.00
2019-01-20T00:50:45.950Z,101150.00
2019-01-20T00:53:15.382Z,101150.00
2019-01-20T00:55:44.821Z,101152.00
2019-01-20T00:58:14.289Z,101146.00
2019-01-20T01:00:43.780Z,101150.00
2019-01-20T01:03:13.239Z,101152.00
2019-01-20T01:05:42.704Z,101153.00
2019-01-20T01:08:13.044Z,101141.00
2019-01-20T01:10:42.543Z,101149.00
2019-01-20T01:13:12.067Z,101153.00
2019-01-20T01:15:41.582Z,101145.00
2019-01-20T01:18:11.050Z,101162.00
2019-01-20T01:20:40.656Z,101157.00
2019-01-20T01:23:10.176Z,101154.00
2019-01-20T01:25:39.673Z,101144.00
2019-01-20T01:28:09.210Z,101148.00
2019-01-20T01:30:38.728Z,101149.00
2019-01-20T01:33:08.243Z,101158.00
2019-01-20T01:35:37.671Z,101153.00
2019-01-20T01:38:07.160Z,101162.00
2019-01-20T01:40:36.680Z,101160.00
2019-01-20T01:43:06.149Z,101160.00
2019-01-20T01:45:35.672Z,101166.00
2019-01-20T01:48:05.204Z,101160.00
2019-01-20T01:50:34.733Z,101159.00
2019-01-20T01:53:04.247Z,101163.00
2019-01-20T01:55:33.710Z,101170.00
2019-01-20T01:58:03.217Z,101167.00
2019-01-20T02:00:32.779Z,101157.00
2019-01-20T02:03:02.232Z,101152.00
2019-01-20T02:05:31.688Z,101151.00
2019-01-20T02:08:01.147Z,101151.00
2019-01-20T02:10:30.897Z,101155.00
2019-01-20T02:13:00.358Z,101157.00
2019-01-20T02:15:29.803Z,101159.00
2019-01-20T02:17:59.309Z,101162.00
2019-01-20T02:20:28.849Z,101156.00
2019-01-20T02:22:58.298Z,101157.00
2019-01-20T02:25:27.825Z,101154.00
2019-01-20T02:27:58.662Z,101159.00
2019-01-20T02:30:29.645Z,101168.00
2019-01-20T02:32:59.311Z,101167.00
2019-01-20T02:35:28.866Z,101171.00
2019-01-20T02:37:58.321Z,101172.00
2019-01-20T02:40:27.827Z,101171.00
2019-01-20T02:42:57.308Z,101173.00
2019-01-20T02:45:26.749Z,101173.00
2019-01-20T02:47:56.251Z,101174.00
2019-01-20T02:50:25.719Z,101175.00
2019-01-20T02:52:55.159Z,101176.00
2019-01-20T02:55:24.629Z,101166.00
2019-01-20T02:57:54.165Z,101164.00
2019-01-20T03:00:24.511Z,101169.00
2019-01-20T03:02:54.117Z,101164.00
2019-01-20T03:05:23.999Z,101158.00
2019-01-20T03:07:53.442Z,101163.00
2019-01-20T03:10:23.037Z,101161.00
2019-01-20T03:12:52.498Z,101163.00
2019-01-20T03:15:22.026Z,101153.00
2019-01-20T03:17:51.531Z,101146.00
2019-01-20T03:20:22.890Z,101155.00
2019-01-20T03:22:52.326Z,101149.00
2019-01-20T03:25:22.304Z,101156.00
2019-01-20T03:27:51.850Z,101151.00
2019-01-20T03:30:23.409Z,101156.00
2019-01-20T03:32:52.873Z,101159.00
2019-01-20T03:35:25.216Z,101151.00
2019-01-20T03:37:54.883Z,101145.00
2019-01-20T03:40:24.591Z,101152.00
2019-01-20T03:42:54.032Z,101161.00
2019-01-20T03:45:23.544Z,101163.00
2019-01-20T03:47:53.137Z,101158.00
2019-01-20T03:50:22.784Z,101150.00
2019-01-20T03:52:52.318Z,101157.00
2019-01-20T03:55:21.840Z,101157.00
2019-01-20T03:57:51.345Z,101162.00
2019-01-20T04:00:25.326Z,101160.00
2019-01-20T04:02:57.055Z,101165.00
2019-01-20T04:05:26.490Z,101162.00
2019-01-20T04:07:55.953Z,101170.00
2019-01-20T04:10:25.572Z,101166.00
2019-01-20T04:12:55.081Z,101174.00
2019-01-20T04:15:24.971Z,101169.00
2019-01-20T04:17:54.582Z,101165.00
2019-01-20T04:20:24.107Z,101167.00
2019-01-20T04:22:53.531Z,101168.00
2019-01-20T04:25:23.185Z,101168.00
2019-01-20T04:27:52.706Z,101181.00
2019-01-20T04:30:22.420Z,101175.00
2019-01-20T04:32:51.959Z,101175.00
2019-01-20T04:35:21.671Z,101167.00
2019-01-20T04:37:51.115Z,101169.00
2019-01-20T04:40:22.892Z,101171.00
2019-01-20T04:42:52.525Z,101165.00
2019-01-20T04:45:22.167Z,101168.00
2019-01-20T04:47:51.621Z,101177.00
2019-01-20T04:50:23.691Z,101164.00
2019-01-20T04:52:53.631Z,101169.00
2019-01-20T04:55:23.305Z,101165.00
2019-01-20T04:57:54.009Z,101170.00
2019-01-20T05:00:26.239Z,101179.00
2019-01-20T05:02:55.887Z,101176.00
2019-01-20T05:05:25.568Z,101170.00
2019-01-20T05:07:54.995Z,101178.00
2019-01-20T05:10:24.577Z,101175.00
2019-01-20T05:12:54.058Z,101170.00
2019-01-20T05:15:24.417Z,101174.00
2019-01-20T05:17:54.069Z,101182.00
2019-01-20T05:20:23.695Z,101182.00
2019-01-20T05:22:53.226Z,101196.00
2019-01-20T05:25:22.692Z,101199.00
2019-01-20T05:27:52.176Z,101197.00
2019-01-20T05:30:24.449Z,101195.00
2019-01-20T05:32:54.054Z,101192.00
2019-01-20T05:35:23.651Z,101212.00
2019-01-20T05:37:53.248Z,101203.00
2019-01-20T05:40:23.126Z,101211.00
2019-01-20T05:42:52.596Z,101214.00
2019-01-20T05:45:24.526Z,101213.00
2019-01-20T05:47:54.079Z,101210.00
2019-01-20T05:50:23.595Z,101213.00
2019-01-20T05:52:53.108Z,101221.00
2019-01-20T05:55:22.645Z,101219.00
2019-01-20T05:57:52.110Z,101224.00
2019-01-20T06:00:30.363Z,101220.00
2019-01-20T06:02:59.828Z,101223.00
2019-01-20T06:05:29.299Z,101226.00
2019-01-20T06:07:58.864Z,101229.00
2019-01-20T06:10:28.491Z,101227.00
2019-01-20T06:12:57.931Z,101229.00
2019-01-20T06:15:27.440Z,101232.00
2019-01-20T06:17:56.932Z,101239.00
2019-01-20T06:20:26.381Z,101239.00
2019-01-20T06:22:55.831Z,101239.00
2019-01-20T06:25:25.307Z,101238.00
2019-01-20T06:27:54.785Z,101242.00
2019-01-20T06:30:30.266Z,101241.00
2019-01-20T06:32:59.709Z,101250.00
2019-01-20T06:35:29.260Z,101243.00
2019-01-20T06:37:58.809Z,101246.00
2019-01-20T06:40:28.435Z,101250.00
2019-01-20T06:43:02.218Z,101241.00
2019-01-20T06:45:29.163Z,101254.00
2019-01-20T06:47:58.803Z,101254.00
2019-01-20T06:50:28.288Z,101255.00
2019-01-20T06:52:57.855Z,101256.00
2019-01-20T06:55:27.257Z,101254.00
2019-01-20T06:57:56.804Z,101259.00
2019-01-20T07:00:26.686Z,101263.00
2019-01-20T07:02:56.168Z,101271.00
2019-01-20T07:05:25.606Z,101264.00
2019-01-20T07:07:55.215Z,101272.00
2019-01-20T07:10:24.744Z,101278.00
2019-01-20T07:12:54.342Z,101268.00
2019-01-20T07:15:24.590Z,101284.00
2019-01-20T07:17:54.162Z,101282.00
2019-01-20T07:20:23.770Z,101298.00
2019-01-20T07:22:53.283Z,101298.00
2019-01-20T07:25:23.030Z,101302.00
2019-01-20T07:27:52.559Z,101306.00
2019-01-20T07:30:23.115Z,101310.00
2019-01-20T07:32:52.733Z,101316.00
2019-01-20T07:35:22.426Z,101315.00
2019-01-20T07:37:52.107Z,101305.00
2019-01-20T07:40:23.298Z,101319.00
2019-01-20T07:42:52.953Z,101323.00
2019-01-20T07:45:22.605Z,101322.00
2019-01-20T07:47:52.250Z,101322.00
2019-01-20T07:50:24.065Z,101326.00
2019-01-20T07:52:53.741Z,101329.00
2019-01-20T07:55:23.401Z,101323.00
2019-01-20T07:57:53.072Z,101330.00
2019-01-20T08:00:26.297Z,101327.00
2019-01-20T08:02:55.770Z,101336.00
2019-01-20T08:05:25.293Z,101327.00
2019-01-20T08:07:54.792Z,101339.00
2019-01-20T08:10:28.730Z,101340.00
2019-01-20T08:12:58.521Z,101345.00
2019-01-20T08:15:28.132Z,101346.00
2019-01-20T08:17:57.666Z,101344.00
2019-01-20T08:20:27.234Z,101341.00
2019-01-20T08:22:56.859Z,101346.00
2019-01-20T08:25:26.587Z,101351.00
2019-01-20T08:27:56.196Z,101344.00
2019-01-20T08:30:27.275Z,101362.00
2019-01-20T08:32:56.913Z,101358.00
2019-01-20T08:35:26.569Z,101358.00
2019-01-20T08:37:56.165Z,101367.00
2019-01-20T08:40:28.637Z,101376.00
2019-01-20T08:42:58.264Z,101370.00
2019-01-20T08:45:50.531Z,101381.00
2019-01-20T08:48:23.983Z,101384.00
2019-01-20T08:50:55.173Z,101385.00
2019-01-20T08:53:24.663Z,101392.00
2019-01-20T08:55:54.183Z,101394.00
2019-01-20T08:58:23.752Z,101389.00
2019-01-20T09:00:53.291Z,101399.00
2019-01-20T09:03:22.735Z,101399.00
2019-01-20T09:05:52.308Z,101403.00
2019-01-20T09:08:21.803Z,101413.00
2019-01-20T09:10:51.288Z,101404.00
2019-01-20T09:13:21.013Z,101411.00
2019-01-20T09:15:50.544Z,101411.00
2019-01-20T09:18:20.168Z,101412.00
2019-01-20T09:20:49.742Z,101405.00
2019-01-20T09:23:19.625Z,101419.00
2019-01-20T09:25:49.178Z,101416.00
2019-01-20T09:28:18.625Z,101417.00
2019-01-20T09:30:48.129Z,101420.00
2019-01-20T09:33:24.500Z,101417.00
2019-01-20T09:35:48.916Z,101416.00
2019-01-20T09:38:18.481Z,101427.00
2019-01-20T09:40:48.045Z,101428.00
2019-01-20T09:43:17.701Z,101425.00
2019-01-20T09:45:47.650Z,101440.00
2019-01-20T09:48:17.212Z,101434.00
2019-01-20T09:50:46.684Z,101427.00
2019-01-20T09:53:16.132Z,101435.00
2019-01-20T09:55:45.773Z,101439.00
2019-01-20T09:58:15.284Z,101437.00
2019-01-20T10:00:44.885Z,101445.00
2019-01-20T10:03:16.321Z,101447.00
2019-01-20T10:05:45.780Z,101454.00
2019-01-20T10:08:15.367Z,101452.00
2019-01-20T10:10:44.903Z,101454.00
2019-01-20T10:13:14.360Z,101450.00
2019-01-20T10:15:43.835Z,101453.00
2019-01-20T10:18:13.371Z,101455.00
2019-01-20T10:20:42.881Z,101463.00
2019-01-20T10:23:12.400Z,101456.00
2019-01-20T10:25:41.894Z,101458.00
2019-01-20T10:28:11.876Z,101449.00
2019-01-20T10:30:41.416Z,101452.00
2019-01-20T10:33:10.989Z,101460.00
2019-01-20T10:35:42.160Z,101463.00
2019-01-20T10:38:12.054Z,101460.00
2019-01-20T10:40:41.584Z,101460.00
2019-01-20T10:43:11.030Z,101461.00
2019-01-20T10:45:40.798Z,101468.00
2019-01-20T10:48:10.501Z,101464.00
2019-01-20T10:50:40.106Z,101468.00
2019-01-20T10:53:09.668Z,101481.00
2019-01-20T10:55:39.341Z,101472.00
2019-01-20T10:58:08.848Z,101460.00
2019-01-20T11:00:40.939Z,101460.00
2019-01-20T11:03:10.430Z,101454.00
2019-01-20T11:05:40.096Z,101463.00
2019-01-20T11:08:09.715Z,101451.00
2019-01-20T11:10:40.161Z,101452.00
2019-01-20T11:13:10.287Z,101449.00
2019-01-20T11:15:39.851Z,101454.00
2019-01-20T11:18:09.624Z,101452.00
2019-01-20T11:20:39.222Z,101455.00
2019-01-20T11:23:08.913Z,101462.00
2019-01-20T11:25:40.807Z,101461.00
2019-01-20T11:28:10.380Z,101465.00
2019-01-20T11:30:39.980Z,101459.00
2019-01-20T11:33:09.705Z,101456.00
2019-01-20T11:35:39.171Z,101451.00
2019-01-20T11:38:08.863Z,101451.00
2019-01-20T11:40:38.349Z,101447.00
2019-01-20T11:43:07.933Z,101452.00
2019-01-20T11:45:37.602Z,101440.00
2019-01-20T11:48:07.304Z,101441.00
2019-01-20T11:50:36.759Z,101450.00
2019-01-20T11:53:06.226Z,101441.00
2019-01-20T11:55:35.781Z,101444.00
2019-01-20T11:58:05.376Z,101441.00
2019-01-20T12:00:36.836Z,101452.00
2019-01-20T12:03:06.536Z,101445.00
2019-01-20T12:05:36.690Z,101445.00
2019-01-20T12:08:06.956Z,101446.00
2019-01-20T12:10:36.966Z,101438.00
2019-01-20T12:13:07.900Z,101444.00
2019-01-20T12:15:37.434Z,101445.00
2019-01-20T12:18:07.245Z,101449.00
2019-01-20T12:20:36.761Z,101448.00
2019-01-20T12:23:06.297Z,101446.00
2019-01-20T12:25:35.820Z,101445.00
2019-01-20T12:28:05.616Z,101439.00
2019-01-20T12:30:38.695Z,101441.00
2019-01-20T12:33:08.534Z,101442.00
2019-01-20T12:35:38.016Z,101441.00
2019-01-20T12:38:07.623Z,101443.00
2019-01-20T12:40:43.655Z,101451.00
2019-01-20T12:43:13.332Z,101443.00
2019-01-20T12:45:42.746Z,101452.00
2019-01-20T12:48:12.243Z,101449.00
2019-01-20T12:50:41.773Z,101454.00
2019-01-20T12:53:11.268Z,101457.00
2019-01-20T12:55:40.744Z,101461.00
2019-01-20T12:58:10.585Z,101459.00
2019-01-20T13:00:40.175Z,101464.00
2019-01-20T13:03:09.719Z,101470.00
2019-01-20T13:05:39.237Z,101468.00
2019-01-20T13:08:08.714Z,101468.00
2019-01-20T13:10:38.252Z,101479.00
2019-01-20T13:13:07.830Z,101474.00
2019-01-20T13:15:37.420Z,101471.00
2019-01-20T13:18:07.026Z,101476.00
2019-01-20T13:20:36.552Z,101468.00
2019-01-20T13:23:06.329Z,101473.00
2019-01-20T13:25:35.988Z,101474.00
2019-01-20T13:28:05.700Z,101473.00
2019-01-20T13:30:35.376Z,101476.00
2019-01-20T13:33:04.995Z,101480.00
2019-01-20T13:35:34.548Z,101483.00
2019-01-20T13:38:08.196Z,101486.00
2019-01-20T13:40:42.553Z,101479.00
2019-01-20T13:43:12.082Z,101478.00
2019-01-20T13:45:41.650Z,101486.00
2019-01-20T13:48:11.576Z,101485.00
2019-01-20T13:50:41.345Z,101489.00
2019-01-20T13:53:10.854Z,101493.00
2019-01-20T13:55:40.490Z,101488.00
2019-01-20T13:58:10.026Z,101489.00
2019-01-20T14:00:39.551Z,101495.00
2019-01-20T14:03:09.161Z,101494.00
2019-01-20T14:05:38.767Z,101494.00
2019-01-20T14:08:08.306Z,101500.00
2019-01-20T14:10:37.803Z,101491.00
2019-01-20T14:13:07.419Z,101494.00
2019-01-20T14:15:36.852Z,101497.00
2019-01-20T14:18:06.295Z,101493.00
2019-01-20T14:20:35.867Z,101504.00
2019-01-20T14:23:05.569Z,101504.00
2019-01-20T14:25:35.097Z,101498.00
2019-01-20T14:28:04.771Z,101491.00
2019-01-20T14:30:34.864Z,101494.00
2019-01-20T14:33:04.401Z,101501.00
2019-01-20T14:35:33.921Z,101494.00
2019-01-20T14:38:03.428Z,101494.00
2019-01-20T14:40:33.147Z,101507.00
2019-01-20T14:43:02.742Z,101501.00
2019-01-20T14:45:32.217Z,101504.00
2019-01-20T14:48:01.738Z,101508.00
2019-01-20T14:50:31.402Z,101509.00
2019-01-20T14:53:00.976Z,101524.00
2019-01-20T14:55:30.471Z,101516.00
2019-01-20T14:58:00.038Z,101510.00
2019-01-20T15:00:38.062Z,101518.00
2019-01-20T15:03:08.419Z,101527.00
2019-01-20T15:05:38.071Z,101529.00
2019-01-20T15:08:08.185Z,101535.00
2019-01-20T15:10:37.719Z,101526.00
2019-01-20T15:13:07.259Z,101527.00
2019-01-20T15:15:40.027Z,101533.00
2019-01-20T15:18:10.322Z,101537.00
2019-01-20T15:20:39.994Z,101533.00
2019-01-20T15:23:10.056Z,101536.00
2019-01-20T15:25:39.599Z,101539.00
2019-01-20T15:28:09.202Z,101540.00
2019-01-20T15:30:38.745Z,101545.00
2019-01-20T15:33:08.356Z,101544.00
2019-01-20T15:35:37.917Z,101555.00
2019-01-20T15:38:07.493Z,101557.00
2019-01-20T15:40:37.153Z,101550.00
2019-01-20T15:43:06.693Z,101565.00
2019-01-20T15:45:36.144Z,101568.00
2019-01-20T15:48:06.385Z,101573.00
2019-01-20T15:50:36.136Z,101571.00
2019-01-20T15:53:05.894Z,101583.00
2019-01-20T15:55:35.454Z,101580.00
2019-01-20T15:58:05.368Z,101578.00
2019-01-20T16:00:35.279Z,101587.00
2019-01-20T16:03:05.137Z,101585.00
2019-01-20T16:05:34.612Z,101592.00
2019-01-20T16:08:04.128Z,101600.00
2019-01-20T16:10:33.671Z,101594.00
2019-01-20T16:13:03.141Z,101597.00
2019-01-20T16:15:34.800Z,101597.00
2019-01-20T16:18:05.249Z,101599.00
2019-01-20T16:20:34.810Z,101606.00
2019-01-20T16:23:04.786Z,101619.00
2019-01-20T16:25:35.422Z,101616.00
2019-01-20T16:28:05.207Z,101607.00
2019-01-20T16:30:37.462Z,101612.00
2019-01-20T16:33:07.058Z,101614.00
2019-01-20T16:35:36.584Z,101618.00
2019-01-20T16:38:06.088Z,101627.00
2019-01-20T16:40:35.574Z,101620.00
2019-01-20T16:43:05.761Z,101624.00
2019-01-20T16:45:42.427Z,101631.00
2019-01-20T16:48:12.347Z,101631.00
2019-01-20T16:50:41.996Z,101625.00
2019-01-20T16:53:11.747Z,101634.00
2019-01-20T16:55:41.489Z,101638.00
2019-01-20T16:58:11.131Z,101638.00
2019-01-20T17:00:42.117Z,101645.00
2019-01-20T17:03:11.857Z,101650.00
2019-01-20T17:05:41.522Z,101646.00
2019-01-20T17:08:11.509Z,101653.00
2019-01-20T17:10:41.391Z,101656.00
2019-01-20T17:13:11.070Z,101661.00
2019-01-20T17:15:42.519Z,101667.00
2019-01-20T17:18:13.165Z,101659.00
2019-01-20T17:20:42.954Z,101661.00
2019-01-20T17:23:12.721Z,101669.00
2019-01-20T17:25:42.256Z,101661.00
2019-01-20T17:28:11.834Z,101665.00
2019-01-20T17:30:41.895Z,101660.00
2019-01-20T17:33:12.410Z,101667.00
2019-01-20T17:35:41.999Z,101661.00
2019-01-20T17:38:11.682Z,101659.00
2019-01-20T17:40:41.213Z,101655.00
2019-01-20T17:43:10.773Z,101662.00
2019-01-20T17:45:47.544Z,101669.00
2019-01-20T17:48:14.087Z,101671.00
2019-01-20T17:50:44.135Z,101672.00
2019-01-20T17:53:13.774Z,101675.00
2019-01-20T17:55:43.285Z,101675.00
2019-01-20T17:58:12.809Z,101673.00
2019-01-20T18:00:47.067Z,101678.00
2019-01-20T18:03:16.729Z,101680.00
2019-01-20T18:05:46.564Z,101686.00
2019-01-20T18:08:16.210Z,101689.00
2019-01-20T18:10:45.683Z,101691.00
2019-01-20T18:13:15.323Z,101698.00
2019-01-20T18:15:54.098Z,101698.00
2019-01-20T18:18:18.899Z,101699.00
2019-01-20T18:20:48.509Z,101710.00
2019-01-20T18:23:18.067Z,101707.00
2019-01-20T18:25:48.493Z,101707.00
2019-01-20T18:28:17.926Z,101704.00
2019-01-20T18:30:47.409Z,101717.00
2019-01-20T18:33:16.873Z,101710.00
2019-01-20T18:35:46.506Z,101722.00
2019-01-20T18:38:16.002Z,101723.00
2019-01-20T18:40:45.627Z,101723.00
2019-01-20T18:43:15.177Z,101733.00
2019-01-20T18:45:44.758Z,101727.00
2019-01-20T18:48:14.174Z,101730.00
2019-01-20T18:50:43.620Z,101748.00
2019-01-20T18:53:13.176Z,101749.00
2019-01-20T18:55:42.712Z,101741.00
2019-01-20T18:58:12.329Z,101749.00
2019-01-20T19:00:47.096Z,101754.00
2019-01-20T19:03:16.646Z,101759.00
2019-01-20T19:05:46.266Z,101759.00
2019-01-20T19:08:15.994Z,101761.00
2019-01-20T19:10:45.523Z,101765.00
2019-01-20T19:13:15.141Z,101760.00
2019-01-20T19:15:44.650Z,101758.00
2019-01-20T19:18:18.987Z,101771.00
2019-01-20T19:20:45.275Z,101772.00
2019-01-20T19:23:14.786Z,101776.00
2019-01-20T19:25:44.267Z,101775.00
2019-01-20T19:28:13.949Z,101780.00
2019-01-20T19:30:43.456Z,101780.00
2019-01-20T19:33:13.011Z,101780.00
2019-01-20T19:35:42.551Z,101787.00
2019-01-20T19:38:12.024Z,101792.00
2019-01-20T19:40:41.459Z,101782.00
2019-01-20T19:43:11.040Z,101798.00
2019-01-20T19:45:40.513Z,101790.00
2019-01-20T19:48:13.132Z,101790.00
2019-01-20T19:50:41.681Z,101794.00
2019-01-20T19:53:11.135Z,101795.00
2019-01-20T19:55:40.650Z,101802.00
2019-01-20T19:58:10.208Z,101810.00
2019-01-20T20:00:39.783Z,101804.00
2019-01-20T20:03:09.260Z,101811.00
2019-01-20T20:05:38.733Z,101814.00
2019-01-20T20:08:08.424Z,101819.00
2019-01-20T20:10:37.993Z,101820.00
2019-01-20T20:13:07.630Z,101830.00
2019-01-20T20:15:37.117Z,101830.00
2019-01-20T20:18:07.239Z,101825.00
2019-01-20T20:20:36.839Z,101826.00
2019-01-20T20:23:06.434Z,101823.00
2019-01-20T20:25:36.027Z,101821.00
2019-01-20T20:28:05.701Z,101826.00
2019-01-20T20:30:36.104Z,101832.00
2019-01-20T20:33:06.271Z,101845.00
2019-01-20T20:35:35.885Z,101846.00
2019-01-20T20:38:05.553Z,101842.00
2019-01-20T20:40:35.069Z,101852.00
2019-01-20T20:43:04.752Z,101853.00
2019-01-20T20:45:34.223Z,101846.00
2019-01-20T20:48:03.879Z,101856.00
2019-01-20T20:50:33.658Z,101865.00
2019-01-20T20:53:03.181Z,101863.00
2019-01-20T20:55:32.715Z,101870.00
2019-01-20T20:58:02.431Z,101865.00
2019-01-20T21:00:38.769Z,101871.00
2019-01-20T21:03:11.661Z,101878.00
2019-01-20T21:05:41.212Z,101875.00
2019-01-20T21:08:10.892Z,101877.00
2019-01-20T21:10:40.349Z,101879.00
2019-01-20T21:13:09.947Z,101876.00
2019-01-20T21:15:39.555Z,101883.00
2019-01-20T21:18:09.130Z,101885.00
2019-01-20T21:20:38.599Z,101889.00
2019-01-20T21:23:12.332Z,101887.00
2019-01-20T21:25:39.385Z,101892.00
2019-01-20T21:28:08.927Z,101893.00
2019-01-20T21:30:39.315Z,101895.00
2019-01-20T21:33:08.919Z,101897.00
2019-01-20T21:35:38.432Z,101897.00
2019-01-20T21:38:08.082Z,101898.00
2019-01-20T21:40:37.581Z,101898.00
2019-01-20T21:43:07.048Z,101898.00
2019-01-20T21:45:36.693Z,101893.00
2019-01-20T21:48:06.317Z,101900.00
2019-01-20T21:50:35.933Z,101903.00
2019-01-20T21:53:05.528Z,101906.00
2019-01-20T21:55:35.441Z,101900.00
2019-01-20T21:58:05.105Z,101914.00
2019-01-20T22:00:34.652Z,101913.00
2019-01-20T22:03:04.378Z,101922.00
2019-01-20T22:05:33.827Z,101921.00
2019-01-20T22:08:03.365Z,101921.00
2019-01-20T22:10:32.882Z,101923.00
2019-01-20T22:13:02.276Z,101926.00
2019-01-20T22:15:31.748Z,101924.00
2019-01-20T22:18:01.240Z,101936.00
2019-01-20T22:20:30.706Z,101931.00
2019-01-20T22:23:00.186Z,101933.00
2019-01-20T22:25:29.784Z,101933.00
2019-01-20T22:27:59.278Z,101933.00
2019-01-20T22:30:36.069Z,101932.00
2019-01-20T22:33:05.621Z,101939.00
2019-01-20T22:35:35.107Z,101938.00
2019-01-20T22:38:04.772Z,101940.00
2019-01-20T22:40:34.261Z,101942.00
2019-01-20T22:43:03.724Z,101939.00
2019-01-20T22:45:33.219Z,101944.00
2019-01-20T22:48:02.703Z,101940.00
2019-01-20T22:50:32.247Z,101936.00
2019-01-20T22:53:01.842Z,101948.00
2019-01-20T22:55:31.394Z,101941.00
2019-01-20T22:58:00.953Z,101940.00
2019-01-20T23:00:42.339Z,101938.00
2019-01-20T23:03:12.170Z,101934.00
2019-01-20T23:05:41.660Z,101947.00
2019-01-20T23:08:11.283Z,101946.00
2019-01-20T23:10:40.860Z,101955.00
2019-01-20T23:13:10.468Z,101955.00
2019-01-20T23:15:40.016Z,101959.00
2019-01-20T23:18:10.036Z,101957.00
2019-01-20T23:20:39.519Z,101952.00
2019-01-20T23:23:08.982Z,101951.00
2019-01-20T23:25:38.631Z,101963.00
2019-01-20T23:28:08.157Z,101953.00
2019-01-20T23:30:37.703Z,101954.00
2019-01-20T23:33:07.331Z,101962.00
2019-01-20T23:35:36.824Z,101960.00
2019-01-20T23:38:06.508Z,101957.00
2019-01-20T23:40:36.179Z,101953.00
2019-01-20T23:43:05.867Z,101956.00
2019-01-20T23:45:35.425Z,101959.00
2019-01-20T23:48:05.018Z,101964.00
2019-01-20T23:50:34.473Z,101970.00
2019-01-20T23:53:04.224Z,101969.00
2019-01-20T23:55:35.297Z,101970.00
2019-01-20T23:58:05.792Z,101973.00
